createdAt,value
2023-04-30T00:00:10.548Z,5.91
2023-04-30T00:01:07.921Z,5.31
2023-04-30T00:02:05.377Z,5.81
2023-04-30T00:03:02.845Z,5.58
2023-04-30T00:04:00.287Z,5.56
2023-04-30T00:04:57.613Z,5.59
2023-04-30T00:05:55.051Z,5.66
2023-04-30T00:06:52.551Z,5.60
2023-04-30T00:07:49.875Z,5.61
2023-04-30T00:08:47.197Z,5.55
2023-04-30T00:09:44.657Z,5.06
2023-04-30T00:10:42.056Z,5.71
2023-04-30T00:11:39.539Z,5.14
2023-04-30T00:12:37.435Z,5.57
2023-04-30T00:13:34.765Z,6.07
2023-04-30T00:14:32.091Z,6.31
2023-04-30T00:15:29.445Z,5.94
2023-04-30T00:16:26.961Z,5.73
2023-04-30T00:17:24.469Z,6.34
2023-04-30T00:18:21.792Z,6.10
2023-04-30T00:19:19.133Z,7.03
2023-04-30T00:20:16.463Z,6.69
2023-04-30T00:21:13.918Z,5.69
2023-04-30T00:22:11.241Z,5.75
2023-04-30T00:23:08.750Z,5.48
2023-04-30T00:24:06.313Z,6.14
2023-04-30T00:25:03.715Z,5.90
2023-04-30T00:26:01.147Z,6.34
2023-04-30T00:26:58.487Z,6.16
2023-04-30T00:27:56.182Z,6.02
2023-04-30T00:28:53.523Z,6.12
2023-04-30T00:29:50.855Z,6.31
2023-04-30T00:30:48.323Z,6.23
2023-04-30T00:31:45.907Z,6.35
2023-04-30T00:32:43.391Z,6.56
2023-04-30T00:33:40.912Z,6.33
2023-04-30T00:34:38.332Z,6.30
2023-04-30T00:35:35.770Z,6.63
2023-04-30T00:36:33.434Z,6.07
2023-04-30T00:37:30.929Z,6.43
2023-04-30T00:38:28.264Z,6.21
2023-04-30T00:39:25.576Z,6.92
2023-04-30T00:40:22.955Z,6.91
2023-04-30T00:41:21.166Z,6.42
2023-04-30T00:42:18.476Z,6.74
2023-04-30T00:43:15.872Z,6.87
2023-04-30T00:44:13.254Z,6.68
2023-04-30T00:45:12.452Z,6.80
2023-04-30T00:46:09.921Z,6.26
2023-04-30T00:47:07.274Z,6.77
2023-04-30T00:48:04.770Z,6.82
2023-04-30T00:49:05.029Z,7.08
2023-04-30T00:50:02.601Z,6.85
2023-04-30T00:51:01.392Z,6.62
2023-04-30T00:51:58.847Z,6.86
2023-04-30T00:52:56.522Z,6.56
2023-04-30T00:53:54.222Z,6.59
2023-04-30T00:54:53.715Z,6.55
2023-04-30T00:55:51.924Z,6.71
2023-04-30T00:56:49.374Z,6.40
2023-04-30T00:57:46.943Z,6.30
2023-04-30T00:58:44.361Z,5.97
2023-04-30T00:59:41.796Z,6.59
2023-04-30T01:00:39.600Z,6.93
2023-04-30T01:01:37.598Z,6.97
2023-04-30T01:02:36.113Z,6.60
2023-04-30T01:03:36.109Z,6.84
2023-04-30T01:04:33.807Z,6.94
2023-04-30T01:05:31.114Z,6.82
2023-04-30T01:06:28.828Z,7.28
2023-04-30T01:07:28.467Z,6.30
2023-04-30T01:08:26.430Z,6.52
2023-04-30T01:09:24.155Z,7.00
2023-04-30T01:10:25.520Z,6.80
2023-04-30T01:11:39.268Z,6.57
2023-04-30T01:12:54.827Z,6.92
2023-04-30T01:14:10.746Z,6.82
2023-04-30T01:15:27.117Z,6.73
2023-04-30T01:16:30.492Z,6.36
2023-04-30T01:17:41.868Z,6.47
2023-04-30T01:18:46.818Z,6.88
2023-04-30T01:19:47.564Z,6.50
2023-04-30T01:20:50.606Z,6.47
2023-04-30T01:21:49.268Z,6.06
2023-04-30T01:22:51.913Z,6.21
2023-04-30T01:23:52.082Z,6.84
2023-04-30T01:25:04.371Z,6.62
2023-04-30T01:26:07.488Z,6.83
2023-04-30T01:27:29.480Z,6.54
2023-04-30T01:28:28.526Z,6.47
2023-04-30T01:29:27.277Z,6.33
2023-04-30T01:30:25.462Z,6.49
2023-04-30T01:31:24.163Z,7.04
2023-04-30T01:32:21.592Z,7.29
2023-04-30T01:33:18.960Z,7.28
2023-04-30T01:34:16.340Z,7.52
2023-04-30T01:35:13.721Z,7.06
2023-04-30T01:36:21.691Z,7.61
2023-04-30T01:37:35.603Z,8.04
2023-04-30T01:38:48.136Z,7.69
2023-04-30T01:40:04.262Z,7.54
2023-04-30T01:41:09.871Z,7.74
2023-04-30T01:42:26.704Z,7.83
2023-04-30T01:43:42.608Z,7.72
2023-04-30T01:44:54.963Z,7.46
2023-04-30T01:45:55.129Z,8.60
2023-04-30T01:47:04.513Z,7.82
2023-04-30T01:48:05.003Z,7.69
2023-04-30T01:49:20.061Z,7.68
2023-04-30T01:50:35.940Z,7.41
2023-04-30T01:51:33.252Z,8.07
2023-04-30T01:52:42.575Z,7.71
2023-04-30T01:53:44.221Z,7.59
2023-04-30T01:54:41.495Z,7.68
2023-04-30T01:55:43.870Z,8.09
2023-04-30T01:56:46.017Z,7.59
2023-04-30T01:57:50.764Z,7.62
2023-04-30T01:58:49.725Z,7.51
2023-04-30T01:59:47.898Z,7.18
2023-04-30T02:00:45.373Z,7.39
2023-04-30T02:01:42.713Z,7.84
2023-04-30T02:02:40.300Z,8.10
2023-04-30T02:03:37.795Z,7.79
2023-04-30T02:04:36.414Z,7.66
2023-04-30T02:05:33.750Z,7.42
2023-04-30T02:06:31.402Z,7.80
2023-04-30T02:07:38.308Z,8.22
2023-04-30T02:08:35.650Z,8.18
2023-04-30T02:09:32.988Z,7.13
2023-04-30T02:10:30.694Z,7.60
2023-04-30T02:11:28.320Z,7.91
2023-04-30T02:12:25.851Z,7.45
2023-04-30T02:13:23.196Z,7.41
2023-04-30T02:14:20.659Z,7.99
2023-04-30T02:15:18.120Z,8.40
2023-04-30T02:16:15.541Z,8.06
2023-04-30T02:17:12.846Z,7.74
2023-04-30T02:18:10.186Z,7.33
2023-04-30T02:19:07.608Z,7.59
2023-04-30T02:20:05.352Z,7.62
2023-04-30T02:21:02.747Z,7.68
2023-04-30T02:22:00.128Z,7.83
2023-04-30T02:22:57.440Z,7.94
2023-04-30T02:23:54.760Z,7.33
2023-04-30T02:24:55.650Z,7.33
2023-04-30T02:25:52.954Z,7.72
2023-04-30T02:26:50.333Z,7.82
2023-04-30T02:27:47.624Z,7.52
2023-04-30T02:28:44.909Z,7.49
2023-04-30T02:29:42.377Z,7.44
2023-04-30T02:30:39.897Z,7.60
2023-04-30T02:31:37.283Z,7.47
2023-04-30T02:32:34.707Z,7.47
2023-04-30T02:33:32.100Z,7.26
2023-04-30T02:34:29.421Z,7.81
2023-04-30T02:35:26.847Z,7.54
2023-04-30T02:36:24.174Z,7.53
2023-04-30T02:37:21.573Z,7.39
2023-04-30T02:38:18.931Z,7.58
2023-04-30T02:39:16.356Z,7.86
2023-04-30T02:40:13.893Z,7.30
2023-04-30T02:41:11.322Z,7.27
2023-04-30T02:42:08.704Z,7.83
2023-04-30T02:43:06.583Z,7.34
2023-04-30T02:44:04.081Z,7.66
2023-04-30T02:45:01.405Z,7.92
2023-04-30T02:45:58.827Z,7.24
2023-04-30T02:46:56.255Z,7.84
2023-04-30T02:47:53.625Z,7.97
2023-04-30T02:48:51.123Z,7.73
2023-04-30T02:49:48.608Z,7.17
2023-04-30T02:50:46.008Z,7.43
2023-04-30T02:51:43.820Z,7.70
2023-04-30T02:52:41.136Z,7.97
2023-04-30T02:53:38.559Z,8.69
2023-04-30T02:54:36.078Z,8.40
2023-04-30T02:55:33.468Z,8.35
2023-04-30T02:56:30.887Z,8.07
2023-04-30T02:57:28.193Z,7.75
2023-04-30T02:58:25.675Z,8.00
2023-04-30T02:59:23.049Z,8.50
2023-04-30T03:00:20.594Z,8.32
2023-04-30T03:01:18.003Z,7.92
2023-04-30T03:02:15.557Z,8.02
2023-04-30T03:03:13.088Z,8.15
2023-04-30T03:04:10.751Z,8.57
2023-04-30T03:05:08.858Z,8.29
2023-04-30T03:06:06.235Z,8.75
2023-04-30T03:07:03.918Z,8.32
2023-04-30T03:08:01.237Z,8.44
2023-04-30T03:08:58.639Z,7.94
2023-04-30T03:09:56.254Z,8.45
2023-04-30T03:10:53.879Z,8.28
2023-04-30T03:11:51.283Z,8.22
2023-04-30T03:12:48.749Z,8.09
2023-04-30T03:13:46.376Z,8.48
2023-04-30T03:14:43.735Z,8.50
2023-04-30T03:15:41.202Z,8.56
2023-04-30T03:16:38.647Z,8.89
2023-04-30T03:17:36.157Z,8.63
2023-04-30T03:18:33.496Z,7.69
2023-04-30T03:19:31.912Z,7.72
2023-04-30T03:20:29.344Z,8.02
2023-04-30T03:21:26.755Z,7.15
2023-04-30T03:22:26.704Z,7.44
2023-04-30T03:23:24.817Z,7.25
2023-04-30T03:24:22.370Z,7.52
2023-04-30T03:25:19.684Z,7.65
2023-04-30T03:26:17.266Z,7.70
2023-04-30T03:27:14.594Z,7.49
2023-04-30T03:28:11.963Z,6.56
2023-04-30T03:29:09.548Z,7.31
2023-04-30T03:30:07.417Z,6.97
2023-04-30T03:31:07.460Z,7.10
2023-04-30T03:32:04.950Z,7.44
2023-04-30T03:33:02.332Z,7.62
2023-04-30T03:33:59.808Z,6.66
2023-04-30T03:34:57.261Z,6.81
2023-04-30T03:35:54.764Z,7.25
2023-04-30T03:36:52.144Z,7.23
2023-04-30T03:37:49.492Z,7.17
2023-04-30T03:38:46.880Z,7.57
2023-04-30T03:39:44.308Z,7.07
2023-04-30T03:40:41.703Z,7.67
2023-04-30T03:41:39.092Z,7.25
2023-04-30T03:42:36.508Z,7.24
2023-04-30T03:43:33.893Z,7.28
2023-04-30T03:44:31.190Z,7.82
2023-04-30T03:45:28.540Z,7.43
2023-04-30T03:46:26.311Z,7.38
2023-04-30T03:47:23.754Z,6.92
2023-04-30T03:48:21.469Z,7.44
2023-04-30T03:49:18.825Z,7.48
2023-04-30T03:50:17.621Z,7.24
2023-04-30T03:51:14.969Z,7.64
2023-04-30T03:52:12.314Z,7.70
2023-04-30T03:53:09.728Z,8.33
2023-04-30T03:54:07.646Z,8.30
2023-04-30T03:55:05.889Z,8.19
2023-04-30T03:56:04.059Z,8.04
2023-04-30T03:57:04.424Z,8.19
2023-04-30T03:58:01.841Z,8.02
2023-04-30T03:58:59.366Z,8.30
2023-04-30T03:59:56.868Z,8.47
2023-04-30T04:00:54.337Z,8.30
2023-04-30T04:01:51.966Z,8.47
2023-04-30T04:02:49.737Z,8.03
2023-04-30T04:03:47.081Z,8.10
2023-04-30T04:04:44.526Z,8.64
2023-04-30T04:05:41.903Z,8.30
2023-04-30T04:06:39.347Z,8.27
2023-04-30T04:07:36.702Z,8.32
2023-04-30T04:08:34.201Z,9.41
2023-04-30T04:09:31.548Z,9.03
2023-04-30T04:10:29.170Z,8.75
2023-04-30T04:11:26.565Z,9.53
2023-04-30T04:12:24.042Z,9.61
2023-04-30T04:13:21.340Z,8.91
2023-04-30T04:14:18.697Z,8.48
2023-04-30T04:15:16.198Z,8.62
2023-04-30T04:16:13.604Z,8.18
2023-04-30T04:17:12.095Z,8.30
2023-04-30T04:18:09.412Z,8.14
2023-04-30T04:19:06.755Z,8.42
2023-04-30T04:20:06.259Z,8.83
2023-04-30T04:21:04.339Z,8.67
2023-04-30T04:22:01.712Z,8.49
2023-04-30T04:22:59.061Z,8.55
2023-04-30T04:23:56.456Z,8.22
2023-04-30T04:24:54.570Z,7.99
2023-04-30T04:25:52.477Z,7.83
2023-04-30T04:26:49.773Z,8.48
2023-04-30T04:27:47.251Z,8.91
2023-04-30T04:28:44.569Z,8.26
2023-04-30T04:29:42.212Z,9.02
2023-04-30T04:30:40.110Z,8.53
2023-04-30T04:31:38.694Z,8.71
2023-04-30T04:32:42.249Z,8.60
2023-04-30T04:33:39.733Z,8.83
2023-04-30T04:34:38.608Z,8.88
2023-04-30T04:35:36.761Z,8.29
2023-04-30T04:36:34.535Z,9.92
2023-04-30T04:37:31.906Z,14.61
2023-04-30T04:38:29.307Z,13.68
2023-04-30T04:39:26.725Z,12.56
2023-04-30T04:40:24.122Z,11.62
2023-04-30T04:41:21.835Z,11.55
2023-04-30T04:42:20.568Z,10.80
2023-04-30T04:43:18.444Z,10.79
2023-04-30T04:44:15.774Z,10.49
2023-04-30T04:45:13.203Z,10.51
2023-04-30T04:46:13.007Z,10.55
2023-04-30T04:47:12.901Z,10.48
2023-04-30T04:48:10.416Z,9.70
2023-04-30T04:49:08.132Z,9.46
2023-04-30T04:50:05.751Z,9.34
2023-04-30T04:51:03.418Z,9.66
2023-04-30T04:52:02.002Z,8.56
2023-04-30T04:52:59.382Z,8.62
2023-04-30T04:53:56.808Z,7.70
2023-04-30T04:54:54.190Z,8.25
2023-04-30T04:55:51.463Z,7.90
2023-04-30T04:56:48.796Z,7.89
2023-04-30T04:57:46.131Z,8.07
2023-04-30T04:58:44.742Z,8.36
2023-04-30T04:59:42.161Z,8.89
2023-04-30T05:00:39.483Z,8.67
2023-04-30T05:01:36.872Z,8.60
2023-04-30T05:02:34.404Z,9.17
2023-04-30T05:03:32.811Z,10.06
2023-04-30T05:04:30.496Z,10.39
2023-04-30T05:05:27.845Z,10.58
2023-04-30T05:06:25.322Z,10.84
2023-04-30T05:07:22.735Z,11.06
2023-04-30T05:08:20.150Z,10.99
2023-04-30T05:09:17.564Z,11.04
2023-04-30T05:10:15.030Z,10.93
2023-04-30T05:11:13.594Z,12.37
2023-04-30T05:12:13.407Z,13.16
2023-04-30T05:13:10.886Z,13.94
2023-04-30T05:14:08.578Z,14.62
2023-04-30T05:15:06.731Z,14.71
2023-04-30T05:16:04.333Z,15.23
2023-04-30T05:17:02.021Z,15.05
2023-04-30T05:17:59.511Z,14.93
2023-04-30T05:18:56.909Z,13.82
2023-04-30T05:19:54.480Z,14.31
2023-04-30T05:20:51.954Z,14.40
2023-04-30T05:21:49.358Z,14.29
2023-04-30T05:22:46.719Z,13.63
2023-04-30T05:23:44.460Z,12.59
2023-04-30T05:24:41.940Z,13.16
2023-04-30T05:25:39.317Z,12.71
2023-04-30T05:26:36.731Z,12.89
2023-04-30T05:27:34.295Z,12.45
2023-04-30T05:28:31.757Z,12.94
2023-04-30T05:29:29.461Z,12.72
2023-04-30T05:30:26.884Z,12.22
2023-04-30T05:31:24.391Z,12.38
2023-04-30T05:32:22.927Z,12.02
2023-04-30T05:33:20.371Z,11.97
2023-04-30T05:34:17.778Z,12.45
2023-04-30T05:35:15.157Z,11.19
2023-04-30T05:36:12.642Z,11.11
2023-04-30T05:37:10.056Z,11.37
2023-04-30T05:38:07.709Z,10.69
2023-04-30T05:39:05.193Z,10.77
2023-04-30T05:40:02.590Z,10.73
2023-04-30T05:41:00.486Z,10.60
2023-04-30T05:41:57.862Z,10.20
2023-04-30T05:42:55.327Z,9.98
2023-04-30T05:43:52.644Z,9.87
2023-04-30T05:44:50.077Z,9.95
2023-04-30T05:45:47.493Z,10.72
2023-04-30T05:46:44.961Z,10.68
2023-04-30T05:47:42.321Z,10.20
2023-04-30T05:48:40.047Z,9.91
2023-04-30T05:49:37.501Z,9.91
2023-04-30T05:50:34.908Z,9.65
2023-04-30T05:51:32.760Z,10.03
2023-04-30T05:52:30.141Z,10.13
2023-04-30T05:53:27.610Z,10.52
2023-04-30T05:54:24.920Z,10.65
2023-04-30T05:55:22.241Z,11.10
2023-04-30T05:56:19.667Z,11.51
2023-04-30T05:57:17.371Z,11.53
2023-04-30T05:58:15.200Z,11.48
2023-04-30T05:59:12.749Z,11.61
2023-04-30T06:00:10.372Z,11.47
2023-04-30T06:01:11.036Z,11.38
2023-04-30T06:02:08.529Z,11.09
2023-04-30T06:03:06.340Z,11.33
2023-04-30T06:04:05.056Z,11.50
2023-04-30T06:05:03.448Z,10.64
2023-04-30T06:06:00.961Z,10.30
2023-04-30T06:06:58.341Z,10.30
2023-04-30T06:07:55.654Z,10.08
2023-04-30T06:08:52.959Z,10.29
2023-04-30T06:09:50.261Z,10.33
2023-04-30T06:10:47.655Z,9.82
2023-04-30T06:11:49.006Z,10.06
2023-04-30T06:12:46.407Z,10.65
2023-04-30T06:13:43.965Z,10.08
2023-04-30T06:14:45.434Z,9.81
2023-04-30T06:15:42.907Z,9.94
2023-04-30T06:16:40.434Z,9.98
2023-04-30T06:17:37.851Z,11.21
2023-04-30T06:18:35.513Z,11.23
2023-04-30T06:19:32.906Z,11.72
2023-04-30T06:20:30.234Z,12.71
2023-04-30T06:21:27.766Z,13.52
2023-04-30T06:22:25.072Z,12.53
2023-04-30T06:23:22.466Z,12.27
2023-04-30T06:24:19.917Z,12.07
2023-04-30T06:25:17.304Z,11.59
2023-04-30T06:26:15.400Z,11.12
2023-04-30T06:27:12.748Z,10.47
2023-04-30T06:28:10.150Z,9.72
2023-04-30T06:29:07.453Z,9.31
2023-04-30T06:30:04.996Z,8.40
2023-04-30T06:31:02.466Z,7.56
2023-04-30T06:31:59.895Z,7.60
2023-04-30T06:32:57.355Z,9.29
2023-04-30T06:33:54.820Z,9.58
2023-04-30T06:34:52.203Z,9.83
2023-04-30T06:35:51.115Z,9.23
2023-04-30T06:36:48.621Z,9.55
2023-04-30T06:37:46.092Z,9.73
2023-04-30T06:38:44.065Z,9.36
2023-04-30T06:39:41.387Z,9.13
2023-04-30T06:40:38.839Z,9.05
2023-04-30T06:41:36.197Z,10.29
2023-04-30T06:42:35.349Z,11.04
2023-04-30T06:43:32.670Z,12.66
2023-04-30T06:44:30.011Z,12.39
2023-04-30T06:45:27.482Z,12.51
2023-04-30T06:46:24.891Z,12.42
2023-04-30T06:47:22.363Z,11.98
2023-04-30T06:48:19.702Z,11.60
2023-04-30T06:49:17.061Z,11.50
2023-04-30T06:50:15.785Z,11.66
2023-04-30T06:51:13.211Z,11.28
2023-04-30T06:52:13.322Z,10.98
2023-04-30T06:53:12.419Z,10.59
2023-04-30T06:54:09.796Z,10.90
2023-04-30T06:55:07.795Z,10.71
2023-04-30T06:56:05.461Z,10.33
2023-04-30T06:57:03.292Z,9.80
2023-04-30T06:58:00.682Z,10.14
2023-04-30T06:58:57.987Z,9.90
2023-04-30T06:59:55.945Z,9.18
2023-04-30T07:00:54.211Z,9.15
2023-04-30T07:01:51.621Z,9.38
2023-04-30T07:02:52.121Z,10.66
2023-04-30T07:03:49.852Z,11.09
2023-04-30T07:04:47.450Z,10.73
2023-04-30T07:05:45.245Z,9.88
2023-04-30T07:06:42.674Z,10.18
2023-04-30T07:07:40.142Z,10.24
2023-04-30T07:08:37.612Z,9.67
2023-04-30T07:09:35.058Z,11.49
2023-04-30T07:10:32.749Z,11.90
2023-04-30T07:11:30.096Z,11.24
2023-04-30T07:12:27.462Z,10.59
2023-04-30T07:13:24.882Z,11.57
2023-04-30T07:14:22.271Z,11.04
2023-04-30T07:15:19.606Z,10.33
2023-04-30T07:16:17.237Z,9.76
2023-04-30T07:17:14.624Z,10.17
2023-04-30T07:18:12.178Z,11.01
2023-04-30T07:19:09.854Z,10.24
2023-04-30T07:20:08.356Z,10.17
2023-04-30T07:21:05.901Z,10.03
2023-04-30T07:22:03.267Z,9.19
2023-04-30T07:23:00.569Z,9.71
2023-04-30T07:23:57.837Z,10.10
2023-04-30T07:24:55.651Z,9.26
2023-04-30T07:25:52.988Z,9.29
2023-04-30T07:26:50.565Z,9.50
2023-04-30T07:27:47.932Z,8.94
2023-04-30T07:28:47.697Z,9.24
2023-04-30T07:29:45.001Z,9.44
2023-04-30T07:30:42.668Z,9.34
2023-04-30T07:31:40.296Z,9.43
2023-04-30T07:32:38.286Z,9.20
2023-04-30T07:33:35.625Z,10.27
2023-04-30T07:34:33.359Z,9.72
2023-04-30T07:35:31.181Z,10.07
2023-04-30T07:36:28.597Z,9.99
2023-04-30T07:37:26.016Z,9.45
2023-04-30T07:38:23.923Z,9.32
2023-04-30T07:39:21.393Z,10.11
2023-04-30T07:40:28.982Z,9.94
2023-04-30T07:41:32.547Z,10.00
2023-04-30T07:42:29.914Z,9.57
2023-04-30T07:43:27.317Z,9.73
2023-04-30T07:44:24.638Z,9.45
2023-04-30T07:45:22.055Z,9.10
2023-04-30T07:46:19.519Z,9.12
2023-04-30T07:47:17.707Z,9.12
2023-04-30T07:48:15.145Z,9.06
2023-04-30T07:49:12.462Z,9.05
2023-04-30T07:50:12.413Z,8.73
2023-04-30T07:51:12.345Z,9.38
2023-04-30T07:52:11.177Z,9.02
2023-04-30T07:53:09.914Z,8.91
2023-04-30T07:54:07.293Z,8.84
2023-04-30T07:55:04.766Z,8.90
2023-04-30T07:56:02.112Z,8.92
2023-04-30T07:56:59.506Z,8.74
2023-04-30T07:57:56.952Z,9.04
2023-04-30T07:58:54.301Z,9.22
2023-04-30T07:59:53.119Z,8.78
2023-04-30T08:00:50.718Z,8.72
2023-04-30T08:01:48.156Z,8.46
2023-04-30T08:02:46.285Z,9.31
2023-04-30T08:03:43.954Z,9.28
2023-04-30T08:04:41.529Z,8.79
2023-04-30T08:05:39.083Z,9.47
2023-04-30T08:06:36.885Z,9.46
2023-04-30T08:07:34.292Z,9.66
2023-04-30T08:08:31.638Z,10.23
2023-04-30T08:09:28.962Z,10.18
2023-04-30T08:10:26.535Z,9.94
2023-04-30T08:11:23.919Z,9.99
2023-04-30T08:12:21.222Z,10.17
2023-04-30T08:13:18.605Z,9.03
2023-04-30T08:14:16.043Z,9.64
2023-04-30T08:15:13.384Z,9.45
2023-04-30T08:16:10.942Z,9.07
2023-04-30T08:17:08.270Z,8.67
2023-04-30T08:18:06.041Z,8.19
2023-04-30T08:19:04.087Z,8.66
2023-04-30T08:20:03.096Z,8.80
2023-04-30T08:21:01.292Z,8.77
2023-04-30T08:21:59.588Z,9.04
2023-04-30T08:22:56.938Z,8.74
2023-04-30T08:23:54.711Z,8.67
2023-04-30T08:24:52.404Z,9.19
2023-04-30T08:25:49.844Z,9.63
2023-04-30T08:26:47.381Z,10.06
2023-04-30T08:27:44.734Z,10.74
2023-04-30T08:28:42.500Z,9.55
2023-04-30T08:29:39.906Z,10.65
2023-04-30T08:30:37.293Z,9.90
2023-04-30T08:31:35.190Z,10.13
2023-04-30T08:32:34.677Z,9.84
2023-04-30T08:33:32.125Z,10.16
2023-04-30T08:34:29.451Z,9.47
2023-04-30T08:35:26.805Z,10.07
2023-04-30T08:36:24.105Z,10.24
2023-04-30T08:37:21.516Z,9.36
2023-04-30T08:38:18.865Z,9.74
2023-04-30T08:39:16.350Z,9.48
2023-04-30T08:40:14.162Z,10.44
2023-04-30T08:41:14.079Z,10.45
2023-04-30T08:42:14.460Z,9.97
2023-04-30T08:43:13.010Z,9.59
2023-04-30T08:44:11.384Z,9.97
2023-04-30T08:45:16.365Z,10.04
2023-04-30T08:46:15.417Z,10.15
2023-04-30T08:47:14.263Z,10.01
2023-04-30T08:48:16.441Z,10.38
2023-04-30T08:49:14.132Z,10.20
2023-04-30T08:50:12.157Z,9.78
2023-04-30T08:51:09.548Z,9.24
2023-04-30T08:52:07.007Z,10.15
2023-04-30T08:53:04.837Z,9.49
2023-04-30T08:54:02.299Z,9.53
2023-04-30T08:55:01.472Z,10.08
2023-04-30T08:55:59.288Z,9.59
2023-04-30T08:56:57.214Z,9.24
2023-04-30T08:57:54.538Z,8.96
2023-04-30T08:58:51.896Z,8.72
2023-04-30T08:59:49.289Z,9.02
2023-04-30T09:00:46.716Z,7.98
2023-04-30T09:01:44.082Z,7.98
2023-04-30T09:02:42.532Z,8.13
2023-04-30T09:03:40.011Z,8.33
2023-04-30T09:04:37.701Z,8.08
2023-04-30T09:05:35.112Z,7.45
2023-04-30T09:06:32.598Z,7.35
2023-04-30T09:07:33.723Z,7.90
2023-04-30T09:08:42.964Z,8.31
2023-04-30T09:09:40.842Z,8.04
2023-04-30T09:10:38.409Z,7.61
2023-04-30T09:11:35.815Z,7.98
2023-04-30T09:12:33.117Z,7.52
2023-04-30T09:13:41.037Z,7.92
2023-04-30T09:14:40.335Z,7.64
2023-04-30T09:15:41.337Z,8.01
2023-04-30T09:16:49.230Z,8.06
2023-04-30T09:17:48.410Z,7.90
2023-04-30T09:18:47.163Z,7.89
2023-04-30T09:19:44.540Z,7.71
2023-04-30T09:20:58.514Z,7.86
2023-04-30T09:21:56.566Z,7.25
2023-04-30T09:23:05.286Z,8.06
2023-04-30T09:24:04.384Z,8.30
2023-04-30T09:25:03.353Z,7.68
2023-04-30T09:26:03.338Z,8.54
2023-04-30T09:27:15.613Z,8.02
2023-04-30T09:28:13.759Z,8.49
2023-04-30T09:29:11.870Z,8.82
2023-04-30T09:30:09.861Z,8.56
2023-04-30T09:31:19.428Z,7.63
2023-04-30T09:32:16.957Z,7.39
2023-04-30T09:33:14.386Z,7.47
2023-04-30T09:34:12.009Z,7.56
2023-04-30T09:35:31.204Z,7.50
2023-04-30T09:36:28.625Z,6.66
2023-04-30T09:37:38.402Z,7.18
2023-04-30T09:38:36.004Z,7.67
2023-04-30T09:39:34.090Z,7.28
2023-04-30T09:40:38.677Z,7.35
2023-04-30T09:41:36.034Z,7.67
2023-04-30T09:42:33.353Z,8.16
2023-04-30T09:43:31.298Z,7.44
2023-04-30T09:44:30.660Z,7.32
2023-04-30T09:45:38.832Z,7.99
2023-04-30T09:46:38.399Z,10.20
2023-04-30T09:47:36.298Z,10.19
2023-04-30T09:48:33.734Z,11.44
2023-04-30T09:49:31.522Z,10.61
2023-04-30T09:50:37.248Z,9.27
2023-04-30T09:51:35.750Z,9.43
2023-04-30T09:52:33.220Z,10.58
2023-04-30T09:53:30.677Z,9.38
2023-04-30T09:54:31.750Z,9.68
2023-04-30T09:55:29.221Z,16.30
2023-04-30T09:56:26.917Z,23.46
2023-04-30T09:57:24.808Z,43.13
2023-04-30T09:58:23.198Z,12.13
2023-04-30T09:59:23.574Z,8.68
2023-04-30T10:00:20.993Z,9.29
2023-04-30T10:01:18.461Z,8.70
2023-04-30T10:02:17.341Z,8.42
2023-04-30T10:03:15.470Z,8.56
2023-04-30T10:04:13.979Z,9.07
2023-04-30T10:05:12.608Z,8.92
2023-04-30T10:06:13.165Z,9.14
2023-04-30T10:07:21.777Z,9.88
2023-04-30T10:08:19.924Z,10.42
2023-04-30T10:09:18.058Z,9.46
2023-04-30T10:10:15.853Z,8.35
2023-04-30T10:11:16.777Z,8.85
2023-04-30T10:12:15.828Z,8.91
2023-04-30T10:13:18.286Z,8.81
2023-04-30T10:14:18.001Z,8.98
2023-04-30T10:15:17.864Z,8.51
2023-04-30T10:16:24.598Z,8.04
2023-04-30T10:17:26.892Z,8.40
2023-04-30T10:18:29.512Z,7.88
2023-04-30T10:19:30.530Z,7.07
2023-04-30T10:20:28.313Z,8.22
2023-04-30T10:21:27.289Z,7.50
2023-04-30T10:22:24.775Z,7.24
2023-04-30T10:23:23.043Z,7.10
2023-04-30T10:24:21.286Z,7.58
2023-04-30T10:25:19.489Z,7.37
2023-04-30T10:26:18.024Z,7.06
2023-04-30T10:27:15.527Z,6.84
2023-04-30T10:28:13.015Z,6.97
2023-04-30T10:29:10.523Z,7.38
2023-04-30T10:30:10.863Z,7.67
2023-04-30T10:31:10.898Z,7.85
2023-04-30T10:32:12.189Z,7.88
2023-04-30T10:33:29.812Z,8.01
2023-04-30T10:34:39.438Z,13.00
2023-04-30T10:35:47.106Z,11.28
2023-04-30T10:36:54.955Z,9.87
2023-04-30T10:37:59.377Z,7.05
2023-04-30T10:38:58.097Z,7.94
2023-04-30T10:39:56.993Z,10.57
2023-04-30T10:40:58.273Z,19.74
2023-04-30T10:42:02.748Z,10.15
2023-04-30T10:43:00.370Z,8.40
2023-04-30T10:44:01.806Z,7.48
2023-04-30T10:45:01.741Z,6.56
2023-04-30T10:45:59.579Z,6.51
2023-04-30T10:47:01.857Z,7.25
2023-04-30T10:47:59.301Z,7.95
2023-04-30T10:48:56.967Z,9.39
2023-04-30T10:50:02.270Z,10.78
2023-04-30T10:50:59.915Z,9.37
2023-04-30T10:52:01.852Z,9.07
2023-04-30T10:53:05.875Z,9.29
2023-04-30T10:54:03.507Z,9.30
2023-04-30T10:55:05.490Z,9.52
2023-04-30T10:56:06.902Z,8.70
2023-04-30T10:57:14.822Z,8.67
2023-04-30T10:58:31.948Z,8.56
2023-04-30T10:59:29.337Z,8.01
2023-04-30T11:00:30.016Z,7.87
2023-04-30T11:01:28.494Z,7.49
2023-04-30T11:02:38.761Z,7.39
2023-04-30T11:03:37.323Z,7.48
2023-04-30T11:04:54.650Z,8.18
2023-04-30T11:05:52.039Z,7.60
2023-04-30T11:06:55.656Z,7.76
2023-04-30T11:07:59.359Z,7.80
2023-04-30T11:09:04.023Z,7.42
2023-04-30T11:10:02.522Z,7.28
2023-04-30T11:11:05.229Z,7.13
2023-04-30T11:12:04.069Z,7.92
2023-04-30T11:13:06.140Z,7.69
2023-04-30T11:14:03.522Z,7.67
2023-04-30T11:15:06.301Z,7.66
2023-04-30T11:16:04.736Z,7.94
2023-04-30T11:17:02.471Z,8.64
2023-04-30T11:18:00.009Z,8.32
2023-04-30T11:19:06.203Z,8.67
2023-04-30T11:20:04.493Z,8.19
2023-04-30T11:21:02.041Z,8.37
2023-04-30T11:22:05.399Z,8.40
2023-04-30T11:23:22.210Z,8.49
2023-04-30T11:24:48.146Z,8.03
2023-04-30T11:25:46.631Z,8.19
2023-04-30T11:27:05.691Z,7.98
2023-04-30T11:28:03.719Z,7.29
2023-04-30T11:29:01.459Z,7.63
2023-04-30T11:29:59.351Z,8.41
2023-04-30T11:30:58.293Z,7.94
2023-04-30T11:31:56.355Z,8.48
2023-04-30T11:32:54.794Z,8.04
2023-04-30T11:33:52.338Z,7.97
2023-04-30T11:34:50.685Z,8.03
2023-04-30T11:35:52.080Z,6.81
2023-04-30T11:36:49.933Z,6.89
2023-04-30T11:37:48.439Z,6.65
2023-04-30T11:38:46.486Z,6.75
2023-04-30T11:39:44.061Z,6.44
2023-04-30T11:40:42.566Z,6.26
2023-04-30T11:41:43.302Z,7.60
2023-04-30T11:42:45.925Z,6.74
2023-04-30T11:43:44.014Z,6.79
2023-04-30T11:44:41.325Z,6.35
2023-04-30T11:45:39.407Z,6.10
2023-04-30T11:46:36.996Z,5.41
2023-04-30T11:47:43.337Z,5.49
2023-04-30T11:48:46.897Z,5.39
2023-04-30T11:49:44.445Z,5.49
2023-04-30T11:50:42.787Z,5.54
2023-04-30T11:51:41.310Z,4.73
2023-04-30T11:52:39.504Z,4.71
2023-04-30T11:53:36.787Z,5.10
2023-04-30T11:54:35.771Z,5.07
2023-04-30T11:55:33.206Z,5.42
2023-04-30T11:56:30.621Z,5.49
2023-04-30T11:57:34.646Z,5.76
2023-04-30T11:58:37.983Z,6.23
2023-04-30T11:59:44.108Z,6.91
2023-04-30T12:00:41.550Z,5.88
2023-04-30T12:01:38.983Z,5.75
2023-04-30T12:02:36.750Z,5.31
2023-04-30T12:03:40.878Z,5.52
2023-04-30T12:04:38.601Z,5.36
2023-04-30T12:05:36.038Z,5.73
2023-04-30T12:06:33.414Z,6.02
2023-04-30T12:07:31.143Z,5.69
2023-04-30T12:08:28.738Z,5.87
2023-04-30T12:09:26.074Z,5.78
2023-04-30T12:10:25.050Z,6.17
2023-04-30T12:11:26.511Z,5.03
2023-04-30T12:12:27.345Z,5.27
2023-04-30T12:13:24.752Z,7.04
2023-04-30T12:14:25.078Z,6.06
2023-04-30T12:15:26.757Z,6.24
2023-04-30T12:16:25.661Z,6.28
2023-04-30T12:17:33.900Z,6.00
2023-04-30T12:18:33.089Z,6.67
2023-04-30T12:19:30.634Z,6.52
2023-04-30T12:20:31.362Z,6.61
2023-04-30T12:21:29.048Z,6.53
2023-04-30T12:22:26.957Z,6.40
2023-04-30T12:23:24.982Z,6.23
2023-04-30T12:24:23.791Z,5.78
2023-04-30T12:25:22.011Z,6.06
2023-04-30T12:26:19.461Z,6.53
2023-04-30T12:27:16.810Z,6.51
2023-04-30T12:28:14.321Z,5.79
2023-04-30T12:29:15.865Z,6.23
2023-04-30T12:30:13.845Z,5.90
2023-04-30T12:31:11.937Z,6.00
2023-04-30T12:32:09.372Z,6.54
2023-04-30T12:33:10.987Z,6.18
2023-04-30T12:34:09.946Z,7.36
2023-04-30T12:35:08.631Z,7.40
2023-04-30T12:36:12.106Z,5.58
2023-04-30T12:37:09.527Z,6.06
2023-04-30T12:38:08.294Z,6.46
2023-04-30T12:39:05.792Z,6.54
2023-04-30T12:40:03.185Z,5.83
2023-04-30T12:41:04.433Z,5.53
2023-04-30T12:42:01.815Z,5.46
2023-04-30T12:43:03.755Z,6.27
2023-04-30T12:44:16.385Z,5.99
2023-04-30T12:45:14.427Z,12.64
2023-04-30T12:46:12.310Z,6.58
2023-04-30T12:47:11.100Z,6.76
2023-04-30T12:48:08.662Z,4.74
2023-04-30T12:49:06.169Z,9.12
2023-04-30T12:50:03.610Z,9.28
2023-04-30T12:51:02.173Z,6.19
2023-04-30T12:52:01.433Z,4.55
2023-04-30T12:53:02.068Z,10.03
2023-04-30T12:53:59.488Z,5.38
2023-04-30T12:54:56.858Z,4.96
2023-04-30T12:56:12.534Z,6.31
2023-04-30T12:57:12.017Z,5.10
2023-04-30T12:58:14.725Z,5.40
2023-04-30T12:59:16.587Z,4.81
2023-04-30T13:00:15.193Z,5.94